Time;durP1;ratioP1;P1;durP2;ratioP2;P2;SDS_P1;SDS_P2;PMS_P1;PMS_P2;Temp;Humidity;BMP_temperature;BMP_pressure;BME280_temperature;BME280_humidity;BME280_pressure;Samples;Min_cycle;Max_cycle;Signal;HPM_P1;HPM_P2
2024/01/25 00:00:24;;;;;;;;;;;6.80;99.90;;;;;;4865578;29;20018;-87
2024/01/25 00:02:50;;;;;;;;;;;6.80;99.90;;;;;;4865197;29;19971;-87
2024/01/25 00:05:15;;;;;;;;;;;6.70;99.90;;;;;;4864752;29;19920;-88
2024/01/25 00:07:47;;;;;;;;;;;6.70;99.90;;;;;;4879768;29;20022;-89
2024/01/25 00:10:14;;;;;;;;;;;6.70;99.90;;;;;;4864855;29;19920;-87
2024/01/25 00:12:40;;;;;;;;;;;6.60;99.90;;;;;;4864119;29;20376;-87
2024/01/25 00:15:06;;;;;;;;;;;6.70;99.90;;;;;;4863839;29;19911;-88
2024/01/25 00:17:31;;;;;;;;;;;6.70;99.90;;;;;;4864988;29;19912;-88
2024/01/25 00:19:57;;;;;;;;;;;6.70;99.90;;;;;;4865142;29;19915;-89
2024/01/25 00:22:38;;;;;;;;;;;6.70;99.90;;;;;;4865332;29;20010;-87
2024/01/25 00:25:04;;;;;;;;;;;6.70;99.90;;;;;;4863931;29;19920;-88
2024/01/25 00:27:29;;;;;;;;;;;6.60;99.90;;;;;;4864633;29;20421;-89
2024/01/25 00:29:55;;;;;;;;;;;6.60;99.90;;;;;;4864653;29;19916;-88
2024/01/25 00:32:21;;;;;;;;;;;6.60;99.90;;;;;;4865145;29;19972;-89
2024/01/25 00:34:47;;;;;;;;;;;6.50;99.90;;;;;;4880978;29;20403;-88
2024/01/25 00:37:12;;;;;;;;;;;6.50;99.90;;;;;;4864744;29;20394;-88
2024/01/25 00:39:38;;;;;;;;;;;6.50;99.90;;;;;;4865029;29;19968;-87
2024/01/25 00:42:05;;;;;;;;;;;6.50;99.90;;;;;;4880811;29;19978;-88
2024/01/25 00:44:31;;;;;;;;;;;6.60;99.90;;;;;;4865475;29;19923;-89
2024/01/25 00:46:57;;;;;;;;;;;6.60;99.90;;;;;;4865807;29;20261;-88
2024/01/25 00:49:23;;;;;;;;;;;6.60;99.90;;;;;;4865120;29;19923;-87
2024/01/25 00:51:48;;;;;;;;;;;6.60;99.90;;;;;;4881712;29;19920;-89
2024/01/25 00:54:14;;;;;;;;;;;6.50;99.90;;;;;;4895825;29;20300;-87
2024/01/25 00:56:40;;;;;;;;;;;6.50;99.90;;;;;;4864265;29;19920;-89
2024/01/25 00:59:06;;;;;;;;;;;6.40;99.90;;;;;;4880817;29;19920;-87
2024/01/25 01:01:32;;;;;;;;;;;6.40;99.90;;;;;;4864976;29;19958;-87
2024/01/25 01:03:58;;;;;;;;;;;6.40;99.90;;;;;;4865237;29;19987;-88
2024/01/25 01:06:24;;;;;;;;;;;6.30;99.90;;;;;;4864436;29;19975;-86
2024/01/25 01:08:49;;;;;;;;;;;6.30;99.90;;;;;;4864295;29;20380;-88
2024/01/25 01:11:15;;;;;;;;;;;6.30;99.90;;;;;;4864020;29;20287;-87
2024/01/25 01:13:41;;;;;;;;;;;6.40;99.90;;;;;;4864504;29;19923;-89
2024/01/25 01:16:07;;;;;;;;;;;6.40;99.90;;;;;;4864366;29;20716;-89
2024/01/25 01:18:32;;;;;;;;;;;6.50;99.90;;;;;;4865051;29;19920;-88
2024/01/25 01:20:58;;;;;;;;;;;6.50;99.90;;;;;;4879958;29;19951;-88
2024/01/25 01:23:23;;;;;;;;;;;6.50;99.90;;;;;;4863945;29;19963;-89
2024/01/25 01:25:49;;;;;;;;;;;6.50;99.90;;;;;;4864091;29;19916;-88
2024/01/25 01:28:15;;;;;;;;;;;6.50;99.90;;;;;;4863670;29;19923;-88
2024/01/25 01:30:41;;;;;;;;;;;6.50;99.90;;;;;;4864310;29;20445;-88
2024/01/25 01:33:10;;;;;;;;;;;6.40;99.90;;;;;;4865180;29;19923;-88
2024/01/25 01:35:36;;;;;;;;;;;6.50;99.90;;;;;;4879782;29;20034;-87
2024/01/25 01:38:01;;;;;;;;;;;6.50;99.90;;;;;;4864420;29;19994;-86
2024/01/25 01:40:27;;;;;;;;;;;6.40;99.90;;;;;;4864460;29;19916;-89
2024/01/25 01:42:58;;;;;;;;;;;6.30;99.90;;;;;;4879520;29;19916;-89
2024/01/25 01:45:23;;;;;;;;;;;6.20;99.90;;;;;;4865290;29;20046;-87
2024/01/25 01:47:49;;;;;;;;;;;6.10;99.90;;;;;;4849249;29;20415;-87
2024/01/25 01:50:21;;;;;;;;;;;6.00;99.90;;;;;;4864469;29;19923;-87
2024/01/25 01:52:47;;;;;;;;;;;6.00;99.90;;;;;;4848904;29;19935;-87
2024/01/25 01:55:13;;;;;;;;;;;6.00;99.90;;;;;;4863906;29;19926;-86
2024/01/25 01:57:39;;;;;;;;;;;6.00;99.90;;;;;;4863519;29;20014;-87
2024/01/25 02:00:08;;;;;;;;;;;6.00;99.90;;;;;;4863330;29;19919;-86
2024/01/25 02:02:37;;;;;;;;;;;6.00;99.90;;;;;;4865008;29;19916;-86
2024/01/25 02:05:02;;;;;;;;;;;6.00;99.90;;;;;;4867584;29;19971;-88
2024/01/25 02:07:30;;;;;;;;;;;6.10;99.90;;;;;;4867591;29;19920;-87
2024/01/25 02:09:55;;;;;;;;;;;6.10;99.90;;;;;;4867862;29;20056;-87
2024/01/25 02:12:21;;;;;;;;;;;6.10;99.90;;;;;;4867488;29;19975;-87
2024/01/25 02:14:46;;;;;;;;;;;6.10;99.90;;;;;;4867347;29;19964;-87
2024/01/25 02:17:12;;;;;;;;;;;6.10;99.90;;;;;;4867538;29;19920;-86
2024/01/25 02:19:38;;;;;;;;;;;6.10;99.90;;;;;;4882772;29;20026;-88
2024/01/25 02:22:06;;;;;;;;;;;6.20;99.90;;;;;;4867267;29;20399;-86
2024/01/25 02:24:32;;;;;;;;;;;6.10;99.90;;;;;;4867542;29;19920;-87
2024/01/25 02:26:58;;;;;;;;;;;6.10;99.90;;;;;;4867612;29;19924;-86
2024/01/25 02:29:23;;;;;;;;;;;6.20;99.90;;;;;;4866172;29;19924;-86
2024/01/25 02:31:49;;;;;;;;;;;6.20;99.90;;;;;;4866554;29;19916;-86
2024/01/25 02:34:15;;;;;;;;;;;6.10;99.90;;;;;;4867739;29;19958;-87
2024/01/25 02:36:40;;;;;;;;;;;6.10;99.90;;;;;;4866959;29;19911;-86
2024/01/25 02:39:06;;;;;;;;;;;6.00;99.90;;;;;;4867105;29;19987;-87
2024/01/25 02:41:32;;;;;;;;;;;6.00;99.90;;;;;;4866046;29;19919;-87
2024/01/25 02:43:57;;;;;;;;;;;6.00;99.90;;;;;;4866814;29;20412;-87
2024/01/25 02:46:23;;;;;;;;;;;6.00;99.90;;;;;;4865880;29;20014;-87
2024/01/25 02:48:49;;;;;;;;;;;6.00;99.90;;;;;;4866213;29;19919;-86
2024/01/25 02:51:14;;;;;;;;;;;6.00;99.90;;;;;;4866550;29;19915;-88
2024/01/25 02:53:40;;;;;;;;;;;6.00;99.90;;;;;;4866475;29;19926;-86
2024/01/25 02:56:06;;;;;;;;;;;6.00;99.90;;;;;;4866531;29;20643;-87
2024/01/25 02:58:32;;;;;;;;;;;6.00;99.90;;;;;;4866152;29;20395;-86
2024/01/25 03:00:57;;;;;;;;;;;5.90;99.90;;;;;;4866157;29;19916;-87
2024/01/25 03:03:23;;;;;;;;;;;5.80;99.90;;;;;;4881728;29;19954;-87
2024/01/25 03:05:49;;;;;;;;;;;5.70;99.90;;;;;;4850888;29;19920;-87
2024/01/25 03:08:15;;;;;;;;;;;5.70;99.90;;;;;;4865709;29;19967;-88
2024/01/25 03:10:40;;;;;;;;;;;5.70;99.90;;;;;;4866182;29;19916;-88
2024/01/25 03:13:06;;;;;;;;;;;5.80;99.90;;;;;;4866007;29;20629;-87
2024/01/25 03:15:32;;;;;;;;;;;5.80;99.90;;;;;;4865998;29;19923;-86
2024/01/25 03:17:57;;;;;;;;;;;5.70;99.90;;;;;;4881899;29;20464;-88
2024/01/25 03:20:23;;;;;;;;;;;5.70;99.90;;;;;;4866023;29;20003;-88
2024/01/25 03:22:49;;;;;;;;;;;5.70;99.90;;;;;;4866224;29;19916;-88
2024/01/25 03:25:14;;;;;;;;;;;5.60;99.90;;;;;;4880706;29;19916;-87
2024/01/25 03:27:40;;;;;;;;;;;5.60;99.90;;;;;;4865452;29;19984;-88
2024/01/25 03:30:06;;;;;;;;;;;5.60;99.90;;;;;;4864949;29;19967;-87
2024/01/25 03:32:32;;;;;;;;;;;5.50;99.90;;;;;;4865274;29;20014;-87
2024/01/25 03:34:58;;;;;;;;;;;5.50;99.90;;;;;;4866717;29;19916;-88
2024/01/25 03:37:36;;;;;;;;;;;5.50;99.90;;;;;;4866920;29;19920;-88
2024/01/25 03:40:01;;;;;;;;;;;5.60;99.90;;;;;;4867258;29;19920;-88
2024/01/25 03:42:27;;;;;;;;;;;5.60;99.90;;;;;;4865341;29;19916;-87
2024/01/25 03:44:53;;;;;;;;;;;5.50;99.90;;;;;;4865426;29;19947;-87
2024/01/25 03:47:18;;;;;;;;;;;5.60;99.90;;;;;;4865495;29;19923;-88
2024/01/25 03:49:44;;;;;;;;;;;5.60;99.90;;;;;;4866012;29;19971;-87
2024/01/25 03:52:10;;;;;;;;;;;5.70;99.90;;;;;;4850447;29;19916;-86
2024/01/25 03:54:36;;;;;;;;;;;5.60;99.90;;;;;;4865857;29;19991;-88
2024/01/25 03:57:02;;;;;;;;;;;5.60;99.90;;;;;;4862082;29;19922;-87
2024/01/25 03:59:28;;;;;;;;;;;5.70;99.90;;;;;;4865652;29;19916;-88
2024/01/25 04:01:53;;;;;;;;;;;5.80;99.90;;;;;;4865731;29;20312;-87
2024/01/25 04:04:49;;;;;;;;;;;5.60;99.90;;;;;;4866177;29;19916;-86
2024/01/25 04:07:15;;;;;;;;;;;5.70;99.90;;;;;;4860941;29;20441;-89
2024/01/25 04:09:40;;;;;;;;;;;5.70;99.90;;;;;;4865711;29;19916;-88
2024/01/25 04:12:06;;;;;;;;;;;5.70;99.90;;;;;;4865116;29;19991;-88
2024/01/25 04:14:32;;;;;;;;;;;5.60;99.90;;;;;;4864680;29;19916;-87
2024/01/25 04:16:57;;;;;;;;;;;5.50;99.90;;;;;;4880252;29;19926;-88
2024/01/25 04:19:24;;;;;;;;;;;5.40;99.90;;;;;;4865133;29;19916;-88
2024/01/25 04:21:49;;;;;;;;;;;5.50;99.90;;;;;;4864410;29;19924;-87
2024/01/25 04:24:15;;;;;;;;;;;5.40;99.90;;;;;;4863475;29;19968;-88
2024/01/25 04:26:41;;;;;;;;;;;5.50;99.90;;;;;;4863099;29;19920;-88
2024/01/25 04:29:06;;;;;;;;;;;5.60;99.90;;;;;;4880466;29;19966;-87
2024/01/25 04:31:32;;;;;;;;;;;5.60;99.90;;;;;;4864986;29;19916;-87
2024/01/25 04:33:57;;;;;;;;;;;5.60;99.90;;;;;;4865043;29;20451;-88
2024/01/25 04:36:23;;;;;;;;;;;5.60;99.90;;;;;;4864720;29;19926;-87
2024/01/25 04:38:49;;;;;;;;;;;5.60;99.90;;;;;;4880793;29;20361;-87
2024/01/25 04:41:14;;;;;;;;;;;5.60;99.90;;;;;;4865262;29;19954;-88
2024/01/25 04:43:40;;;;;;;;;;;5.50;99.90;;;;;;4864747;29;19919;-88
2024/01/25 04:46:06;;;;;;;;;;;5.50;99.90;;;;;;4865360;29;20022;-88
2024/01/25 04:48:31;;;;;;;;;;;5.60;99.90;;;;;;4865084;29;20067;-88
2024/01/25 04:51:00;;;;;;;;;;;5.60;99.90;;;;;;4864596;29;19927;-88
2024/01/25 04:53:26;;;;;;;;;;;5.50;99.90;;;;;;4864568;29;20325;-89
2024/01/25 04:55:53;;;;;;;;;;;5.50;99.90;;;;;;4866249;29;20010;-89
2024/01/25 04:58:18;;;;;;;;;;;5.40;99.90;;;;;;4864659;29;20249;-88
2024/01/25 05:00:44;;;;;;;;;;;5.40;99.90;;;;;;4864924;29;19919;-89
2024/01/25 05:03:09;;;;;;;;;;;5.40;99.90;;;;;;4863964;29;19938;-88
2024/01/25 05:05:35;;;;;;;;;;;5.40;99.90;;;;;;4864502;29;20006;-88
2024/01/25 05:08:00;;;;;;;;;;;5.50;99.90;;;;;;4864465;29;19916;-88
2024/01/25 05:10:27;;;;;;;;;;;5.40;99.90;;;;;;4864950;29;19916;-88
2024/01/25 05:12:52;;;;;;;;;;;5.20;99.90;;;;;;4864774;29;19922;-88
2024/01/25 05:15:18;;;;;;;;;;;5.10;99.90;;;;;;4865370;29;20315;-89
2024/01/25 05:17:44;;;;;;;;;;;5.10;99.90;;;;;;4865729;29;19920;-88
2024/01/25 05:20:09;;;;;;;;;;;5.10;99.90;;;;;;4872424;29;19920;-89
2024/01/25 05:22:40;;;;;;;;;;;5.00;99.90;;;;;;4882011;29;20064;-88
2024/01/25 05:25:08;;;;;;;;;;;5.00;99.90;;;;;;4882781;29;19920;-87
2024/01/25 05:27:33;;;;;;;;;;;4.90;99.90;;;;;;4883022;29;19942;-89
2024/01/25 05:29:59;;;;;;;;;;;4.80;99.90;;;;;;4876067;29;19920;-88
2024/01/25 05:32:24;;;;;;;;;;;4.80;99.90;;;;;;4865213;29;19916;-88
2024/01/25 05:34:50;;;;;;;;;;;4.70;99.90;;;;;;4865155;29;20481;-88
2024/01/25 05:37:15;;;;;;;;;;;4.80;99.90;;;;;;4865262;29;19954;-88
2024/01/25 05:39:41;;;;;;;;;;;4.90;99.90;;;;;;4868388;29;19916;-88
2024/01/25 05:42:08;;;;;;;;;;;5.00;99.90;;;;;;4868392;29;19907;-88
2024/01/25 05:44:34;;;;;;;;;;;5.10;99.90;;;;;;4868594;29;19920;-88
2024/01/25 05:47:00;;;;;;;;;;;5.10;99.90;;;;;;4868617;29;19931;-87
2024/01/25 05:49:25;;;;;;;;;;;5.10;99.90;;;;;;4868876;29;20104;-87
2024/01/25 05:51:51;;;;;;;;;;;5.00;99.90;;;;;;4867395;29;20045;-87
2024/01/25 05:54:17;;;;;;;;;;;5.00;99.90;;;;;;4867778;29;19912;-87
2024/01/25 05:56:42;;;;;;;;;;;5.00;99.90;;;;;;4871318;29;20324;-88
2024/01/25 05:59:08;;;;;;;;;;;5.00;99.90;;;;;;4867466;29;20018;-87
2024/01/25 06:01:33;;;;;;;;;;;5.10;99.90;;;;;;4867956;29;19927;-87
2024/01/25 06:03:59;;;;;;;;;;;5.10;99.90;;;;;;4867789;29;20014;-87
2024/01/25 06:06:24;;;;;;;;;;;5.00;99.90;;;;;;4867316;29;19967;-87
2024/01/25 06:08:50;;;;;;;;;;;5.00;99.90;;;;;;4868068;29;19911;-88
2024/01/25 06:11:16;;;;;;;;;;;5.00;99.90;;;;;;4883382;29;19942;-88
2024/01/25 06:13:42;;;;;;;;;;;5.10;99.90;;;;;;4867223;29;19920;-87
2024/01/25 06:16:08;;;;;;;;;;;5.10;99.90;;;;;;4866872;29;19938;-87
2024/01/25 06:18:33;;;;;;;;;;;5.10;99.90;;;;;;4867269;29;20217;-88
2024/01/25 06:20:59;;;;;;;;;;;5.10;99.90;;;;;;4882334;29;19974;-87
2024/01/25 06:23:25;;;;;;;;;;;5.20;99.90;;;;;;4867266;29;19920;-88
2024/01/25 06:25:50;;;;;;;;;;;5.20;99.90;;;;;;4867378;29;19923;-87
2024/01/25 06:28:16;;;;;;;;;;;5.30;99.90;;;;;;4866995;29;20368;-87
2024/01/25 06:30:42;;;;;;;;;;;5.30;99.90;;;;;;4866960;29;19916;-87
2024/01/25 06:33:07;;;;;;;;;;;5.20;99.90;;;;;;4866431;29;20432;-88
2024/01/25 06:35:33;;;;;;;;;;;5.30;99.90;;;;;;4867184;29;19943;-87
2024/01/25 06:37:59;;;;;;;;;;;5.30;99.90;;;;;;4866577;29;19916;-88
2024/01/25 06:40:24;;;;;;;;;;;5.30;99.90;;;;;;4882400;29;19916;-88
2024/01/25 06:42:50;;;;;;;;;;;5.30;99.90;;;;;;4866655;29;20634;-87
2024/01/25 06:45:17;;;;;;;;;;;5.30;99.90;;;;;;4867285;29;19920;-86
2024/01/25 06:47:43;;;;;;;;;;;5.30;99.90;;;;;;4882554;29;19920;-89
2024/01/25 06:50:08;;;;;;;;;;;5.30;99.90;;;;;;4865245;29;19919;-87
2024/01/25 06:52:34;;;;;;;;;;;5.20;99.90;;;;;;4865664;29;20602;-87
2024/01/25 06:55:00;;;;;;;;;;;5.20;99.90;;;;;;4850939;29;19916;-87
2024/01/25 06:57:26;;;;;;;;;;;5.20;99.90;;;;;;4866906;29;19912;-87
2024/01/25 06:59:51;;;;;;;;;;;5.10;99.90;;;;;;4866552;29;19916;-88
2024/01/25 07:02:17;;;;;;;;;;;5.20;99.90;;;;;;4867002;29;19945;-87
2024/01/25 07:04:42;;;;;;;;;;;5.00;99.90;;;;;;4882057;29;19968;-87
2024/01/25 07:07:08;;;;;;;;;;;4.90;99.90;;;;;;4865533;29;19924;-85
2024/01/25 07:09:34;;;;;;;;;;;4.90;99.90;;;;;;4865037;29;20018;-85
2024/01/25 07:12:00;;;;;;;;;;;4.90;99.90;;;;;;4880528;29;20337;-85
2024/01/25 07:14:25;;;;;;;;;;;4.90;99.90;;;;;;4864684;29;19916;-84
2024/01/25 07:16:51;;;;;;;;;;;4.80;99.90;;;;;;4864614;29;20007;-84
2024/01/25 07:19:17;;;;;;;;;;;4.80;99.90;;;;;;4865118;29;20010;-85
2024/01/25 07:21:45;;;;;;;;;;;4.90;99.90;;;;;;4864859;29;19923;-85
2024/01/25 07:24:11;;;;;;;;;;;5.00;99.90;;;;;;4865136;29;19920;-86
2024/01/25 07:26:37;;;;;;;;;;;5.00;99.90;;;;;;4864566;29;19916;-85
2024/01/25 07:29:03;;;;;;;;;;;5.00;99.90;;;;;;4865497;29;19927;-85
2024/01/25 07:31:28;;;;;;;;;;;5.10;99.90;;;;;;4865195;29;20010;-85
2024/01/25 07:33:55;;;;;;;;;;;5.10;99.90;;;;;;4865629;29;19972;-85
2024/01/25 07:36:20;;;;;;;;;;;5.10;99.90;;;;;;4863956;29;20019;-86
2024/01/25 07:38:49;;;;;;;;;;;5.00;99.90;;;;;;4864992;29;19975;-86
2024/01/25 07:41:15;;;;;;;;;;;5.00;99.90;;;;;;4864248;29;20304;-85
2024/01/25 07:43:41;;;;;;;;;;;5.10;99.90;;;;;;4865178;29;19915;-86
2024/01/25 07:46:07;;;;;;;;;;;5.10;99.90;;;;;;4864611;29;20416;-85
2024/01/25 07:48:32;;;;;;;;;;;5.10;99.90;;;;;;4864815;29;19920;-85
2024/01/25 07:50:58;;;;;;;;;;;5.10;99.90;;;;;;4865218;29;20409;-85
2024/01/25 07:53:23;;;;;;;;;;;5.10;99.90;;;;;;4849220;29;19927;-85
2024/01/25 07:55:49;;;;;;;;;;;5.10;99.90;;;;;;4864490;29;19916;-84
2024/01/25 07:58:15;;;;;;;;;;;5.10;99.90;;;;;;4864252;29;19920;-84
2024/01/25 08:00:42;;;;;;;;;;;5.00;99.90;;;;;;4863492;29;19923;-83
2024/01/25 08:03:08;;;;;;;;;;;5.00;99.90;;;;;;4863560;29;19915;-85
2024/01/25 08:05:33;;;;;;;;;;;4.90;99.90;;;;;;4864636;29;19920;-84
2024/01/25 08:07:59;;;;;;;;;;;4.90;99.90;;;;;;4864550;29;19924;-84
2024/01/25 08:10:24;;;;;;;;;;;5.00;99.90;;;;;;4864733;29;19951;-84
2024/01/25 08:12:50;;;;;;;;;;;4.90;99.90;;;;;;4864313;29;19923;-85
2024/01/25 08:15:16;;;;;;;;;;;5.10;99.90;;;;;;4864306;29;19922;-85
2024/01/25 08:17:42;;;;;;;;;;;5.20;99.90;;;;;;4863286;29;20352;-84
2024/01/25 08:20:09;;;;;;;;;;;5.20;99.90;;;;;;4863611;29;19916;-84
2024/01/25 08:22:34;;;;;;;;;;;5.30;99.90;;;;;;4863405;29;19924;-85
2024/01/25 08:25:00;;;;;;;;;;;5.20;99.90;;;;;;4863947;29;19974;-85
2024/01/25 08:27:26;;;;;;;;;;;5.30;99.90;;;;;;4863775;29;20273;-85
2024/01/25 08:29:51;;;;;;;;;;;5.20;99.90;;;;;;4864176;29;19916;-85
2024/01/25 08:32:17;;;;;;;;;;;5.30;99.90;;;;;;4864219;29;19927;-85
2024/01/25 08:34:43;;;;;;;;;;;5.30;99.90;;;;;;4863286;29;20020;-85
2024/01/25 08:37:08;;;;;;;;;;;5.30;99.90;;;;;;4863709;29;19920;-86
2024/01/25 08:39:34;;;;;;;;;;;5.30;99.90;;;;;;4862906;29;19920;-85
2024/01/25 08:42:06;;;;;;;;;;;5.30;99.90;;;;;;4878547;29;19915;-84
2024/01/25 08:44:31;;;;;;;;;;;5.30;99.90;;;;;;4864085;29;19927;-85
2024/01/25 08:46:57;;;;;;;;;;;5.30;99.90;;;;;;4863210;29;19920;-85
2024/01/25 08:49:23;;;;;;;;;;;5.30;99.90;;;;;;4863866;29;19920;-85
2024/01/25 08:51:49;;;;;;;;;;;5.50;99.90;;;;;;4863536;29;19920;-85
2024/01/25 08:54:14;;;;;;;;;;;5.50;99.90;;;;;;4864108;29;19927;-85
2024/01/25 08:56:40;;;;;;;;;;;5.50;99.90;;;;;;4864621;29;20007;-85
2024/01/25 08:59:05;;;;;;;;;;;5.50;99.90;;;;;;4864237;29;19916;-85
2024/01/25 09:01:31;;;;;;;;;;;5.60;99.90;;;;;;4863947;29;19912;-85
2024/01/25 09:04:02;;;;;;;;;;;5.60;99.90;;;;;;4864009;29;20288;-85
2024/01/25 09:06:28;;;;;;;;;;;5.60;99.90;;;;;;4863509;29;19923;-85
2024/01/25 09:08:53;;;;;;;;;;;5.60;99.90;;;;;;4863693;29;20014;-85
2024/01/25 09:11:19;;;;;;;;;;;5.60;99.90;;;;;;4863305;29;19959;-85
2024/01/25 09:13:47;;;;;;;;;;;5.60;99.90;;;;;;4878714;29;19915;-85
2024/01/25 09:16:13;;;;;;;;;;;5.60;99.90;;;;;;4863252;29;19919;-85
2024/01/25 09:18:38;;;;;;;;;;;5.70;99.90;;;;;;4863011;29;19920;-85
2024/01/25 09:21:04;;;;;;;;;;;5.80;99.90;;;;;;4880061;29;20417;-86
2024/01/25 09:23:30;;;;;;;;;;;6.00;99.90;;;;;;4879947;29;20369;-85
2024/01/25 09:25:55;;;;;;;;;;;6.20;99.90;;;;;;4879457;29;19973;-85
2024/01/25 09:28:21;;;;;;;;;;;6.30;99.90;;;;;;4862388;29;19920;-85
2024/01/25 09:30:46;;;;;;;;;;;6.40;99.90;;;;;;4878136;29;20007;-85
2024/01/25 09:33:12;;;;;;;;;;;6.40;99.90;;;;;;4863752;29;20572;-85
2024/01/25 09:35:37;;;;;;;;;;;6.50;99.90;;;;;;4863477;29;20439;-84
2024/01/25 09:38:03;;;;;;;;;;;6.50;99.90;;;;;;4863500;29;19920;-86
2024/01/25 09:40:29;;;;;;;;;;;6.40;99.90;;;;;;4863761;29;20247;-86
2024/01/25 09:42:55;;;;;;;;;;;6.40;99.90;;;;;;4863783;29;19919;-86
2024/01/25 09:45:20;;;;;;;;;;;6.50;99.90;;;;;;4863655;29;20287;-86
2024/01/25 09:47:46;;;;;;;;;;;6.40;99.90;;;;;;4863136;29;19926;-85
2024/01/25 09:50:12;;;;;;;;;;;6.50;99.90;;;;;;4862994;29;20383;-85
2024/01/25 09:52:38;;;;;;;;;;;6.60;99.90;;;;;;4862558;29;20368;-86
2024/01/25 09:55:13;;;;;;;;;;;6.80;99.90;;;;;;4862636;29;20418;-86
2024/01/25 09:57:41;;;;;;;;;;;6.90;99.90;;;;;;4862558;29;20656;-86
2024/01/25 10:00:11;;;;;;;;;;;7.00;99.90;;;;;;4862787;29;19920;-86
2024/01/25 10:02:37;;;;;;;;;;;7.10;99.90;;;;;;4863095;29;19922;-86
2024/01/25 10:05:03;;;;;;;;;;;7.10;99.90;;;;;;4862792;29;19916;-85
2024/01/25 10:07:36;;;;;;;;;;;7.20;99.90;;;;;;4863492;29;20416;-85
2024/01/25 10:10:01;;;;;;;;;;;7.20;99.90;;;;;;4862920;29;19916;-85
2024/01/25 10:12:27;;;;;;;;;;;7.30;99.90;;;;;;4863117;29;19916;-86
2024/01/25 10:14:53;;;;;;;;;;;7.30;99.90;;;;;;4878208;29;19934;-85
2024/01/25 10:17:18;;;;;;;;;;;7.50;99.90;;;;;;4877610;29;19926;-86
2024/01/25 10:19:44;;;;;;;;;;;7.60;99.90;;;;;;4861740;29;19927;-85
2024/01/25 10:22:12;;;;;;;;;;;7.60;99.90;;;;;;4862517;29;20007;-85
2024/01/25 10:24:38;;;;;;;;;;;7.80;99.90;;;;;;4865325;29;19920;-86
2024/01/25 10:27:04;;;;;;;;;;;8.00;99.90;;;;;;4866095;29;19924;-86
2024/01/25 10:29:29;;;;;;;;;;;8.20;99.90;;;;;;4865746;29;20296;-86
2024/01/25 10:31:55;;;;;;;;;;;8.40;99.90;;;;;;4866032;29;19915;-86
2024/01/25 10:34:22;;;;;;;;;;;8.80;99.90;;;;;;4880961;29;19912;-87
2024/01/25 10:36:49;;;;;;;;;;;8.80;99.90;;;;;;4865197;29;19920;-85
2024/01/25 10:39:15;;;;;;;;;;;8.60;99.90;;;;;;4881147;29;19980;-85
2024/01/25 10:41:42;;;;;;;;;;;8.50;99.90;;;;;;4866132;29;20003;-85
2024/01/25 10:44:07;;;;;;;;;;;8.40;99.90;;;;;;4866291;29;20010;-86
2024/01/25 10:46:33;;;;;;;;;;;8.10;99.90;;;;;;4865966;29;20600;-85
2024/01/25 10:49:00;;;;;;;;;;;8.10;99.90;;;;;;4865960;29;20428;-86
2024/01/25 10:51:26;;;;;;;;;;;8.00;99.90;;;;;;4865648;29;20037;-87
2024/01/25 10:53:52;;;;;;;;;;;7.80;99.90;;;;;;4865571;29;19916;-86
2024/01/25 10:56:18;;;;;;;;;;;7.80;99.90;;;;;;4865349;29;19918;-86
2024/01/25 10:58:44;;;;;;;;;;;7.80;99.90;;;;;;4865675;29;19990;-86
2024/01/25 11:01:13;;;;;;;;;;;7.70;99.90;;;;;;4881081;29;20289;-86
2024/01/25 11:03:39;;;;;;;;;;;7.70;99.90;;;;;;4880188;29;19981;-87
2024/01/25 11:06:09;;;;;;;;;;;7.70;99.90;;;;;;4864883;29;19949;-86
2024/01/25 11:08:38;;;;;;;;;;;7.60;99.90;;;;;;4865275;29;19924;-86
2024/01/25 11:11:10;;;;;;;;;;;7.60;99.90;;;;;;4865622;29;20420;-86
2024/01/25 11:13:38;;;;;;;;;;;7.60;99.90;;;;;;4865126;29;19916;-86
2024/01/25 11:16:17;;;;;;;;;;;7.70;99.90;;;;;;4864728;29;20365;-86
2024/01/25 11:18:55;;;;;;;;;;;7.70;99.90;;;;;;4865159;29;19919;-86
2024/01/25 11:21:22;;;;;;;;;;;7.80;99.90;;;;;;4880869;29;19926;-87
2024/01/25 11:23:47;;;;;;;;;;;7.80;99.90;;;;;;4864761;29;20017;-87
2024/01/25 11:26:15;;;;;;;;;;;7.80;99.90;;;;;;4880840;29;20380;-87
2024/01/25 11:28:40;;;;;;;;;;;7.90;99.90;;;;;;4865012;29;19920;-87
2024/01/25 11:31:06;;;;;;;;;;;8.00;99.90;;;;;;4864727;29;19975;-86
2024/01/25 11:33:32;;;;;;;;;;;7.90;99.90;;;;;;4880150;29;19971;-86
2024/01/25 11:35:58;;;;;;;;;;;7.90;99.90;;;;;;4863701;29;20377;-87
2024/01/25 11:38:23;;;;;;;;;;;7.90;99.90;;;;;;4864539;29;20747;-87
2024/01/25 11:40:49;;;;;;;;;;;8.00;99.90;;;;;;4881695;29;20010;-86
2024/01/25 11:43:15;;;;;;;;;;;8.00;99.90;;;;;;4865071;29;19916;-85
2024/01/25 11:45:42;;;;;;;;;;;8.10;99.90;;;;;;4865135;29;19930;-85
2024/01/25 11:48:08;;;;;;;;;;;8.20;99.90;;;;;;4864331;29;20631;-85
2024/01/25 11:50:34;;;;;;;;;;;8.20;99.90;;;;;;4864968;29;20018;-85
2024/01/25 11:53:00;;;;;;;;;;;8.30;99.90;;;;;;4864491;29;20368;-84
2024/01/25 11:55:25;;;;;;;;;;;8.20;99.90;;;;;;4864446;29;19916;-85
2024/01/25 11:57:51;;;;;;;;;;;8.20;99.90;;;;;;4867434;29;20280;-84
2024/01/25 12:00:18;;;;;;;;;;;8.20;99.90;;;;;;4863010;29;19926;-84
2024/01/25 12:02:43;;;;;;;;;;;8.20;99.90;;;;;;4863613;29;19922;-84
2024/01/25 12:05:10;;;;;;;;;;;8.20;99.90;;;;;;4863704;29;19911;-85
2024/01/25 12:07:36;;;;;;;;;;;8.30;99.90;;;;;;4864063;29;19919;-84
2024/01/25 12:10:01;;;;;;;;;;;8.40;99.90;;;;;;4864377;29;19916;-84
2024/01/25 12:12:27;;;;;;;;;;;8.40;99.90;;;;;;4879400;29;19955;-84
2024/01/25 12:15:00;;;;;;;;;;;8.50;99.90;;;;;;4863547;29;19916;-86
2024/01/25 12:17:29;;;;;;;;;;;8.60;99.90;;;;;;4863622;29;19916;-84
2024/01/25 12:19:58;;;;;;;;;;;8.60;99.90;;;;;;4864770;29;20372;-86
2024/01/25 12:22:27;;;;;;;;;;;8.70;99.90;;;;;;4864166;29;20388;-85
2024/01/25 12:24:56;;;;;;;;;;;8.60;99.90;;;;;;4864536;29;19919;-85
2024/01/25 12:27:22;;;;;;;;;;;8.60;99.90;;;;;;4864945;29;20014;-85
2024/01/25 12:29:48;;;;;;;;;;;8.50;99.90;;;;;;4864909;29;19923;-86
2024/01/25 12:32:14;;;;;;;;;;;8.40;99.90;;;;;;4863924;29;19920;-86
2024/01/25 12:34:41;;;;;;;;;;;8.40;99.90;;;;;;4864336;29;19916;-85
2024/01/25 12:37:07;;;;;;;;;;;8.40;99.90;;;;;;4863591;29;19920;-85
2024/01/25 12:39:32;;;;;;;;;;;8.50;99.90;;;;;;4863407;29;20286;-86
2024/01/25 12:41:58;;;;;;;;;;;8.50;99.90;;;;;;4863532;29;19923;-87
2024/01/25 12:44:24;;;;;;;;;;;8.60;99.90;;;;;;4864294;29;19920;-86
2024/01/25 12:46:50;;;;;;;;;;;8.60;99.90;;;;;;4863853;29;19924;-86
2024/01/25 12:49:15;;;;;;;;;;;8.50;99.90;;;;;;4878975;29;19924;-85
2024/01/25 12:51:44;;;;;;;;;;;8.50;99.90;;;;;;4863761;29;19919;-86
2024/01/25 12:54:10;;;;;;;;;;;8.50;99.90;;;;;;4863720;29;19924;-85
2024/01/25 12:56:35;;;;;;;;;;;8.50;99.90;;;;;;4863429;29;19971;-86
2024/01/25 12:59:01;;;;;;;;;;;8.60;99.90;;;;;;4863985;29;19916;-86
2024/01/25 13:01:27;;;;;;;;;;;8.70;99.90;;;;;;4864202;29;19916;-86
2024/01/25 13:03:52;;;;;;;;;;;8.60;99.90;;;;;;4863969;29;20265;-86
2024/01/25 13:06:18;;;;;;;;;;;8.60;99.90;;;;;;4863543;29;20304;-86
2024/01/25 13:08:44;;;;;;;;;;;8.60;99.90;;;;;;4864113;29;19924;-86
2024/01/25 13:11:09;;;;;;;;;;;8.70;99.90;;;;;;4879487;29;20313;-86
2024/01/25 13:13:35;;;;;;;;;;;8.50;99.90;;;;;;4863953;29;19970;-86
2024/01/25 13:16:00;;;;;;;;;;;8.40;99.90;;;;;;4863475;29;20383;-86
2024/01/25 13:18:26;;;;;;;;;;;8.30;99.90;;;;;;4863670;29;19916;-86
2024/01/25 13:20:52;;;;;;;;;;;8.20;99.90;;;;;;4864207;29;19984;-85
2024/01/25 13:23:17;;;;;;;;;;;8.20;99.90;;;;;;4863798;29;19916;-86
2024/01/25 13:25:43;;;;;;;;;;;8.10;99.90;;;;;;4863914;29;19959;-85
2024/01/25 13:28:08;;;;;;;;;;;8.20;99.90;;;;;;4879236;29;19988;-86
2024/01/25 13:30:56;;;;;;;;;;;8.20;99.90;;;;;;4863183;29;20372;-85
2024/01/25 13:33:22;;;;;;;;;;;8.30;99.90;;;;;;4879295;29;19923;-85
2024/01/25 13:35:47;;;;;;;;;;;8.40;99.90;;;;;;4863510;29;19919;-86
2024/01/25 13:38:14;;;;;;;;;;;8.40;99.90;;;;;;4863364;29;20384;-85
2024/01/25 13:40:40;;;;;;;;;;;8.40;99.90;;;;;;4862465;29;20014;-85
2024/01/25 13:43:06;;;;;;;;;;;8.40;99.90;;;;;;4862886;29;19955;-85
2024/01/25 13:45:31;;;;;;;;;;;8.40;99.90;;;;;;4864600;29;19967;-86
2024/01/25 13:50:31;;;;;;;;;;;8.30;99.90;;;;;;5126335;27;19916;-84
2024/01/25 13:52:56;;;;;;;;;;;8.40;99.90;;;;;;5113937;27;20374;-86
2024/01/25 13:55:22;;;;;;;;;;;8.40;99.90;;;;;;5110809;28;19915;-86
2024/01/25 13:57:47;;;;;;;;;;;8.40;99.90;;;;;;5109105;27;19923;-86
2024/01/25 14:00:13;;;;;;;;;;;8.40;99.90;;;;;;5113555;28;19911;-86
2024/01/25 14:02:39;;;;;;;;;;;8.40;99.90;;;;;;5125843;27;19939;-87
2024/01/25 14:05:06;;;;;;;;;;;8.40;99.90;;;;;;5142842;27;19998;-87
2024/01/25 14:07:32;;;;;;;;;;;8.30;99.90;;;;;;5119200;28;20453;-85
2024/01/25 14:09:57;;;;;;;;;;;8.30;99.90;;;;;;5112703;28;19958;-85
2024/01/25 14:12:23;;;;;;;;;;;8.30;99.90;;;;;;5133935;27;20286;-86
2024/01/25 14:14:49;;;;;;;;;;;8.40;99.90;;;;;;5106577;28;19919;-86
2024/01/25 14:17:14;;;;;;;;;;;8.40;99.90;;;;;;5161841;27;19912;-86
2024/01/25 14:19:41;;;;;;;;;;;8.40;99.90;;;;;;5143695;27;19911;-85
2024/01/25 14:22:06;;;;;;;;;;;8.40;99.90;;;;;;5113319;28;19912;-85
2024/01/25 14:24:32;;;;;;;;;;;8.40;99.90;;;;;;5130420;28;19922;-85
2024/01/25 14:26:58;;;;;;;;;;;8.40;99.90;;;;;;5113374;28;20305;-86